Time;durP1;ratioP1;P1;durP2;ratioP2;P2;SDS_P1;SDS_P2;PMS_P1;PMS_P2;Temp;Humidity;BMP_temperature;BMP_pressure;BME280_temperature;BME280_humidity;BME280_pressure;Samples;Min_cycle;Max_cycle;Signal;HPM_P1;HPM_P2
2023/08/02 00:02:14;;;;;;;;;4.00;3.00;;;;;23.34;52.59;99772.47;4997897;28;46290;-43
2023/08/02 00:04:41;;;;;;;;;3.25;2.00;;;;;23.34;52.53;99774.28;4980290;28;45445;-46
2023/08/02 00:07:06;;;;;;;;;4.00;1.75;;;;;23.33;52.72;99762.03;4998319;28;45326;-42
2023/08/02 00:09:32;;;;;;;;;2.00;2.00;;;;;23.33;52.90;99752.28;4998178;28;45579;-43
2023/08/02 00:11:58;;;;;;;;;3.00;1.75;;;;;23.33;52.93;99740.88;4997790;28;46245;-43
2023/08/02 00:14:24;;;;;;;;;1.00;1.00;;;;;23.31;52.86;99747.16;4997650;28;45401;-42
2023/08/02 00:16:49;;;;;;;;;2.00;1.00;;;;;23.31;52.83;99738.38;4997979;28;45294;-41
2023/08/02 00:19:15;;;;;;;;;1.75;1.50;;;;;23.31;52.80;99733.94;4997671;28;45335;-44
2023/08/02 00:21:41;;;;;;;;;0.50;0.50;;;;;23.31;52.84;99730.47;4980047;28;47351;-45
2023/08/02 00:24:07;;;;;;;;;1.00;1.00;;;;;23.30;52.94;99721.66;4997867;28;45436;-48
2023/08/02 00:26:32;;;;;;;;;3.00;2.00;;;;;23.30;52.95;99715.56;4997701;28;45439;-49
2023/08/02 00:28:57;;;;;;;;;2.50;1.75;;;;;23.28;52.92;99706.91;4997793;28;45576;-47
2023/08/02 00:31:23;;;;;;;;;1.00;1.00;;;;;23.29;53.11;99698.03;4996864;28;62642;-46
2023/08/02 00:33:48;;;;;;;;;1.00;1.00;;;;;23.29;53.05;99698.03;4997472;28;45409;-51
2023/08/02 00:36:13;;;;;;;;;1.00;1.00;;;;;23.29;53.22;99690.09;4997566;28;45310;-50
2023/08/02 00:38:39;;;;;;;;;1.00;1.00;;;;;23.27;53.03;99684.91;4998003;28;45448;-49
2023/08/02 00:41:05;;;;;;;;;2.25;1.00;;;;;23.27;53.09;99679.63;4996874;28;56634;-49
2023/08/02 00:43:41;;;;;;;;;1.00;1.00;;;;;23.27;53.08;99676.97;4997254;28;45823;-45
2023/08/02 00:46:12;;;;;;;;;0.00;0.00;;;;;23.28;53.45;99672.56;4997861;28;45252;-44
2023/08/02 00:48:38;;;;;;;;;0.75;0.75;;;;;23.27;53.18;99658.47;4998047;28;45431;-46
2023/08/02 00:51:12;;;;;;;;;1.00;1.00;;;;;23.27;53.27;99650.53;4997144;28;46558;-45
2023/08/02 00:53:37;;;;;;;;;0.00;0.00;;;;;23.25;53.55;99634.00;4997498;28;45598;-47
2023/08/02 00:56:03;;;;;;;;;1.00;1.00;;;;;23.26;53.70;99618.97;4997202;28;45274;-46
2023/08/02 00:58:28;;;;;;;;;0.50;0.50;;;;;23.22;53.54;99605.19;4997360;28;45258;-46
2023/08/02 01:00:53;;;;;;;;;0.00;0.00;;;;;23.23;53.89;99598.94;4996593;28;53040;-49
2023/08/02 01:03:19;;;;;;;;;0.00;0.00;;;;;23.23;53.50;99598.06;4996067;28;64073;-47
2023/08/02 01:05:54;;;;;;;;;3.75;0.75;;;;;23.21;54.19;99594.72;4997263;28;45260;-47
2023/08/02 01:08:25;;;;;;;;;0.00;0.00;;;;;23.20;54.23;99601.00;4997322;28;45430;-47
2023/08/02 01:11:01;;;;;;;;;0.00;0.00;;;;;23.21;53.91;99578.88;4996949;28;45458;-47
2023/08/02 01:13:29;;;;;;;;;0.00;0.00;;;;;23.21;53.73;99573.56;4997029;28;45362;-46
2023/08/02 01:15:55;;;;;;;;;0.00;0.00;;;;;23.20;53.90;99571.94;4997083;28;45431;-45
2023/08/02 01:18:21;;;;;;;;;2.00;0.00;;;;;23.21;54.16;99563.00;4997052;28;45453;-48
2023/08/02 01:20:46;;;;;;;;;0.00;0.00;;;;;23.21;54.16;99552.44;4996841;28;46069;-46
2023/08/02 01:23:11;;;;;;;;;0.25;0.00;;;;;23.20;53.68;99546.31;4996517;28;63272;-44
2023/08/02 01:25:38;;;;;;;;;0.25;0.25;;;;;23.19;53.85;99541.16;4997281;28;45704;-50
2023/08/02 01:28:10;;;;;;;;;0.00;0.00;;;;;23.21;54.43;99536.56;4997087;28;45313;-43
2023/08/02 01:30:38;;;;;;;;;0.75;0.00;;;;;23.19;54.26;99518.22;4978945;28;47517;-43
2023/08/02 01:33:05;;;;;;;;;1.50;0.00;;;;;23.17;54.25;99507.75;4996744;28;45405;-43
2023/08/02 01:35:32;;;;;;;;;0.00;0.00;;;;;23.20;54.48;99503.22;4996724;28;45449;-43
2023/08/02 01:37:58;;;;;;;;;0.00;0.00;;;;;23.17;53.82;99499.81;4997037;28;45649;-46
2023/08/02 01:40:24;;;;;;;;;0.00;0.00;;;;;23.19;54.12;99504.16;4996488;28;45385;-49
2023/08/02 01:42:49;;;;;;;;;0.00;0.00;;;;;23.18;54.26;99487.44;4996601;28;45247;-41
2023/08/02 01:45:15;;;;;;;;;0.00;0.00;;;;;23.19;54.22;99490.94;4996579;28;45335;-40
2023/08/02 01:47:40;;;;;;;;;0.00;0.00;;;;;23.18;54.48;99479.50;4997084;28;45464;-47
2023/08/02 01:50:06;;;;;;;;;0.00;0.00;;;;;23.17;54.48;99477.84;4995907;28;56322;-43
2023/08/02 01:52:31;;;;;;;;;0.00;0.00;;;;;23.17;54.32;99473.41;4996481;28;45341;-42
2023/08/02 01:54:56;;;;;;;;;0.00;0.00;;;;;23.17;54.34;99470.75;4996101;28;54274;-40
2023/08/02 01:57:21;;;;;;;;;0.00;0.00;;;;;23.15;54.33;99464.75;4996260;28;45515;-43
2023/08/02 01:59:47;;;;;;;;;0.00;0.00;;;;;23.15;54.34;99470.06;4996187;28;45405;-42
2023/08/02 02:02:12;;;;;;;;;0.00;0.00;;;;;23.16;54.68;99463.78;4996049;28;62943;-41
2023/08/02 02:04:37;;;;;;;;;0.00;0.00;;;;;23.16;54.22;99455.00;4995908;28;49677;-42
2023/08/02 02:07:20;;;;;;;;;0.00;0.00;;;;;23.15;54.80;99456.84;4996690;28;45413;-39
2023/08/02 02:09:45;;;;;;;;;0.00;0.00;;;;;23.15;54.57;99454.19;4996051;28;46261;-41
2023/08/02 02:12:10;;;;;;;;;0.00;0.00;;;;;23.14;54.78;99446.41;4978611;28;52500;-46
2023/08/02 02:14:36;;;;;;;;;0.00;0.00;;;;;23.15;54.69;99443.63;4998330;28;45309;-48
2023/08/02 02:17:01;;;;;;;;;0.00;0.00;;;;;23.13;55.10;99437.63;4999132;28;57490;-44
2023/08/02 02:19:27;;;;;;;;;0.00;0.00;;;;;23.15;54.74;99437.50;4999166;28;45996;-48
2023/08/02 02:21:52;;;;;;;;;0.00;0.00;;;;;23.15;54.54;99426.94;4981422;28;57428;-46
2023/08/02 02:24:18;;;;;;;;;0.00;0.00;;;;;23.16;54.82;99425.94;4999687;28;45389;-43
2023/08/02 02:26:43;;;;;;;;;0.00;0.00;;;;;23.15;54.94;99417.19;5000115;28;45539;-43
2023/08/02 02:29:08;;;;;;;;;0.00;0.00;;;;;23.15;54.88;99411.91;4999036;28;59615;-42
2023/08/02 02:31:34;;;;;;;;;0.00;0.00;;;;;23.14;54.78;99398.84;4999541;28;45927;-46
2023/08/02 02:33:59;;;;;;;;;0.00;0.00;;;;;23.15;55.16;99396.03;4998663;28;63671;-44
2023/08/02 02:36:24;;;;;;;;;0.00;0.00;;;;;23.16;55.03;99396.88;4999468;28;45249;-44
2023/08/02 02:38:50;;;;;;;;;0.00;0.00;;;;;23.17;55.18;99385.31;4998583;28;65692;-45
2023/08/02 02:41:15;;;;;;;;;0.00;0.00;;;;;23.14;54.94;99362.66;4999616;28;45432;-47
2023/08/02 02:43:40;;;;;;;;;0.00;0.00;;;;;23.16;54.90;99358.06;4998811;28;55547;-44
2023/08/02 02:46:05;;;;;;;;;0.00;0.00;;;;;23.16;54.94;99357.22;4999480;28;45523;-47
2023/08/02 02:48:31;;;;;;;;;0.00;0.00;;;;;23.16;54.89;99351.94;4998671;28;56358;-47
2023/08/02 02:50:56;;;;;;;;;0.00;0.00;;;;;23.14;55.47;99341.50;4999101;28;45373;-44
2023/08/02 02:53:23;;;;;;;;;2.00;0.00;;;;;23.17;55.41;99351.81;4999191;28;45309;-45
2023/08/02 02:55:48;;;;;;;;;0.00;0.00;;;;;23.15;55.05;99340.53;4999294;28;45471;-46
2023/08/02 02:58:14;;;;;;;;;0.00;0.00;;;;;23.17;55.11;99335.09;4998738;28;59318;-50
2023/08/02 03:00:39;;;;;;;;;0.00;0.00;;;;;23.17;55.32;99324.53;4999013;28;45231;-41
2023/08/02 03:03:04;;;;;;;;;0.00;0.00;;;;;23.17;55.15;99312.19;4998621;28;52064;-43
2023/08/02 03:05:30;;;;;;;;;0.00;0.00;;;;;23.18;55.14;99310.34;4999192;28;45278;-44
2023/08/02 03:07:55;;;;;;;;;0.00;0.00;;;;;23.18;55.39;99299.78;4998766;28;46026;-46
2023/08/02 03:10:21;;;;;;;;;1.00;0.00;;;;;23.17;55.19;99296.31;4998902;28;45354;-46
2023/08/02 03:12:46;;;;;;;;;0.00;0.00;;;;;23.17;55.32;99290.19;4999232;28;45284;-46
2023/08/02 03:15:11;;;;;;;;;0.00;0.00;;;;;23.19;55.71;99290.06;4998551;28;48646;-46
2023/08/02 03:17:37;;;;;;;;;0.00;0.00;;;;;23.19;55.66;99285.63;4997693;28;67633;-46
2023/08/02 03:20:02;;;;;;;;;1.00;0.00;;;;;23.19;55.21;99277.69;4998756;28;45259;-44
2023/08/02 03:22:28;;;;;;;;;0.00;0.00;;;;;23.19;55.86;99274.19;4998867;28;45496;-42
2023/08/02 03:24:53;;;;;;;;;1.00;0.00;;;;;23.20;55.38;99271.44;4997999;28;53084;-45
2023/08/02 03:27:18;;;;;;;;;0.75;0.00;;;;;23.21;55.64;99264.34;4998209;28;66112;-44
2023/08/02 03:29:43;;;;;;;;;0.00;0.00;;;;;23.19;55.57;99263.63;4998280;28;53076;-45
2023/08/02 03:32:09;;;;;;;;;0.00;0.00;;;;;23.22;55.69;99260.72;4998654;28;45248;-47
2023/08/02 03:34:34;;;;;;;;;0.00;0.00;;;;;23.21;56.03;99259.03;4998507;28;45467;-47
2023/08/02 03:36:59;;;;;;;;;0.00;0.00;;;;;23.22;55.77;99258.94;4997734;28;70031;-46
2023/08/02 03:39:27;;;;;;;;;0.00;0.00;;;;;23.23;55.63;99257.09;4997566;28;63126;-44
2023/08/02 03:41:58;;;;;;;;;0.00;0.00;;;;;23.22;55.69;99255.44;4998509;28;45342;-49
2023/08/02 03:44:23;;;;;;;;;0.00;0.00;;;;;23.22;56.11;99252.78;4998625;28;45375;-49
2023/08/02 03:46:49;;;;;;;;;0.00;0.00;;;;;23.22;55.72;99242.22;4998136;28;55006;-47
2023/08/02 03:49:14;;;;;;;;;0.00;0.00;;;;;23.21;55.85;99251.13;4997682;28;63604;-43
2023/08/02 03:51:39;;;;;;;;;0.00;0.00;;;;;23.22;55.94;99243.06;4998441;28;45285;-46
2023/08/02 03:54:05;;;;;;;;;0.00;0.00;;;;;23.23;55.80;99243.88;4998526;28;45558;-41
2023/08/02 03:56:30;;;;;;;;;0.00;0.00;;;;;23.24;56.26;99240.28;4997976;28;46324;-44
2023/08/02 03:58:56;;;;;;;;;0.00;0.00;;;;;23.24;55.92;99238.47;4998091;28;45452;-44
2023/08/02 04:01:21;;;;;;;;;0.00;0.00;;;;;23.23;56.53;99230.66;4998435;28;45515;-46
2023/08/02 04:03:46;;;;;;;;;0.00;0.00;;;;;23.23;55.73;99226.25;4998547;28;45381;-44
2023/08/02 04:06:13;;;;;;;;;1.00;0.00;;;;;23.25;56.22;99228.72;4997969;28;48636;-46
2023/08/02 04:08:38;;;;;;;;;0.00;0.00;;;;;23.26;56.64;99222.47;4997983;28;45667;-44
2023/08/02 04:11:07;;;;;;;;;0.00;0.00;;;;;23.24;56.03;99219.97;4998051;28;45299;-47
2023/08/02 04:13:32;;;;;;;;;0.00;0.00;;;;;23.26;56.40;99217.19;4998192;28;45529;-46
2023/08/02 04:15:57;;;;;;;;;0.00;0.00;;;;;23.25;56.41;99216.34;4997705;28;46150;-45
2023/08/02 04:18:23;;;;;;;;;0.00;0.00;;;;;23.25;56.27;99212.88;4997325;28;52682;-46
2023/08/02 04:20:48;;;;;;;;;0.00;0.00;;;;;23.26;56.11;99217.19;4980633;28;45325;-45
2023/08/02 04:23:13;;;;;;;;;0.75;0.00;;;;;23.27;56.72;99217.03;4997350;28;57774;-47
2023/08/02 04:25:38;;;;;;;;;0.00;0.00;;;;;23.25;56.85;99212.88;4997601;28;46024;-45
2023/08/02 04:28:05;;;;;;;;;0.00;0.00;;;;;23.28;56.50;99204.66;4997278;28;53790;-43
2023/08/02 04:30:30;;;;;;;;;0.00;0.00;;;;;23.26;56.68;99196.03;4997688;28;45450;-45
2023/08/02 04:32:56;;;;;;;;;0.00;0.00;;;;;23.26;57.07;99199.50;4997559;28;45499;-42
2023/08/02 04:35:21;;;;;;;;;0.00;0.00;;;;;23.29;56.56;99195.75;4997617;28;46227;-43
2023/08/02 04:37:46;;;;;;;;;0.00;0.00;;;;;23.28;56.34;99194.91;4996746;28;45376;-41
2023/08/02 04:40:12;;;;;;;;;0.00;0.00;;;;;23.29;56.38;99198.41;4997673;28;45321;-41
2023/08/02 04:42:37;;;;;;;;;0.00;0.00;;;;;23.30;56.49;99203.53;4997859;28;45533;-43
2023/08/02 04:45:03;;;;;;;;;1.00;0.00;;;;;23.31;56.91;99193.81;4997331;28;45352;-43
2023/08/02 04:47:28;;;;;;;;;0.00;0.00;;;;;23.31;57.10;99193.81;4997419;28;45254;-44
2023/08/02 04:49:57;;;;;;;;;0.00;0.00;;;;;23.32;57.02;99192.81;4997777;28;45381;-47
2023/08/02 04:52:22;;;;;;;;;0.75;0.00;;;;;23.30;57.11;99186.84;4998028;28;45309;-45
2023/08/02 04:54:47;;;;;;;;;0.00;0.00;;;;;23.31;56.83;99177.94;4997206;28;45366;-46
2023/08/02 04:57:12;;;;;;;;;0.00;0.00;;;;;23.33;56.79;99180.44;4996617;28;59502;-48
2023/08/02 04:59:38;;;;;;;;;1.00;0.00;;;;;23.31;57.15;99183.25;4996551;28;61273;-46
2023/08/02 05:02:03;;;;;;;;;0.00;0.00;;;;;23.32;56.81;99176.94;4997365;28;45384;-47
2023/08/02 05:04:28;;;;;;;;;0.00;0.00;;;;;23.33;56.86;99175.97;4997064;28;45544;-45
2023/08/02 05:06:54;;;;;;;;;0.00;0.00;;;;;23.33;57.32;99168.03;4996899;28;58821;-47
2023/08/02 05:09:20;;;;;;;;;0.00;0.00;;;;;23.33;57.41;99165.41;4997271;28;45397;-46
2023/08/02 05:11:45;;;;;;;;;0.00;0.00;;;;;23.34;57.47;99159.13;4997305;28;45286;-44
2023/08/02 05:14:12;;;;;;;;;0.00;0.00;;;;;23.34;57.08;99155.66;4979087;28;47023;-44
2023/08/02 05:16:37;;;;;;;;;0.00;0.00;;;;;23.35;57.60;99152.06;4996668;28;45841;-44
2023/08/02 05:19:03;;;;;;;;;0.00;0.00;;;;;23.34;57.52;99156.50;4996617;28;45339;-46
2023/08/02 05:21:29;;;;;;;;;0.00;0.00;;;;;23.34;57.59;99132.69;4996903;28;45528;-42
2023/08/02 05:23:57;;;;;;;;;0.00;0.00;;;;;23.35;57.33;99130.91;4996304;28;45377;-45
2023/08/02 05:26:23;;;;;;;;;0.00;0.00;;;;;23.36;57.58;99133.41;4997002;28;45196;-44
2023/08/02 05:28:48;;;;;;;;;0.00;0.00;;;;;23.34;57.40;99137.97;4996945;28;45388;-44
2023/08/02 05:31:14;;;;;;;;;0.00;0.00;;;;;23.36;57.44;99127.28;4997008;28;45555;-44
2023/08/02 05:33:40;;;;;;;;;0.00;0.00;;;;;23.36;57.98;99125.47;4996702;28;45787;-45
2023/08/02 05:36:06;;;;;;;;;0.00;0.00;;;;;23.35;57.37;99121.16;4996700;28;45323;-44
2023/08/02 05:38:33;;;;;;;;;0.00;0.00;;;;;23.36;57.90;99116.72;4996762;28;45396;-46
2023/08/02 05:41:03;;;;;;;;;1.00;0.00;;;;;23.36;57.87;99112.25;4996828;28;45323;-49
2023/08/02 05:43:29;;;;;;;;;0.00;0.00;;;;;23.37;57.97;99119.19;4996451;28;46416;-48
2023/08/02 05:45:54;;;;;;;;;0.00;0.00;;;;;23.37;58.11;99121.84;4996771;28;45407;-46
2023/08/02 05:48:20;;;;;;;;;0.00;0.00;;;;;23.37;57.91;99105.16;4996615;28;45381;-45
2023/08/02 05:50:45;;;;;;;;;0.00;0.00;;;;;23.37;57.59;99113.91;4996753;28;45515;-43
2023/08/02 05:53:10;;;;;;;;;0.00;0.00;;;;;23.36;57.96;99108.78;4995811;28;61975;-50
2023/08/02 05:55:35;;;;;;;;;0.00;0.00;;;;;23.38;58.11;99110.28;4996353;28;47254;-43
2023/08/02 05:58:01;;;;;;;;;0.00;0.00;;;;;23.38;57.54;99107.66;4996493;28;45313;-44
2023/08/02 06:00:26;;;;;;;;;0.00;0.00;;;;;23.37;57.63;99108.63;4996904;28;45317;-43
2023/08/02 06:02:51;;;;;;;;;0.00;0.00;;;;;23.38;57.85;99105.00;4996301;28;45532;-44
2023/08/02 06:05:17;;;;;;;;;0.00;0.00;;;;;23.39;57.92;99101.38;4996271;28;45250;-43
2023/08/02 06:07:42;;;;;;;;;0.25;0.00;;;;;23.38;57.95;99098.88;4996461;28;45281;-44
2023/08/02 06:10:08;;;;;;;;;0.00;0.00;;;;;23.38;58.46;99099.72;4996639;28;45307;-45
2023/08/02 06:12:33;;;;;;;;;0.00;0.00;;;;;23.38;58.19;99098.88;4996147;28;45806;-45
2023/08/02 06:14:58;;;;;;;;;0.00;0.00;;;;;23.40;58.41;99089.84;4996181;28;48705;-44
2023/08/02 06:17:26;;;;;;;;;0.00;0.00;;;;;23.40;58.10;99097.78;4996437;28;45432;-45
2023/08/02 06:19:51;;;;;;;;;0.00;0.00;;;;;23.39;57.98;99085.53;4996270;28;45389;-46
2023/08/02 06:22:17;;;;;;;;;0.00;0.00;;;;;23.41;58.29;99078.28;4996044;28;45314;-46
2023/08/02 06:24:43;;;;;;;;;0.00;0.00;;;;;23.42;58.01;99066.72;4995982;28;45179;-49
2023/08/02 06:27:09;;;;;;;;;0.00;0.00;;;;;23.40;58.16;99047.53;4996173;28;45310;-46
2023/08/02 06:29:35;;;;;;;;;0.00;0.00;;;;;23.42;57.80;99064.09;4996307;28;45274;-48
2023/08/02 06:32:00;;;;;;;;;0.00;0.00;;;;;23.43;58.52;99064.91;4995965;28;45460;-45
2023/08/02 06:34:25;;;;;;;;;0.00;0.00;;;;;23.42;58.54;99072.03;4996258;28;45429;-49
2023/08/02 06:36:51;;;;;;;;;0.00;0.00;;;;;23.43;58.62;99046.41;4995952;28;45378;-43
2023/08/02 06:39:16;;;;;;;;;0.00;0.00;;;;;23.41;58.14;99061.56;4996136;28;45397;-47
2023/08/02 06:41:41;;;;;;;;;0.00;0.00;;;;;23.43;58.74;99060.44;4995674;28;46206;-43
2023/08/02 06:44:07;;;;;;;;;0.00;0.00;;;;;23.43;58.33;99064.91;4995834;28;45398;-44
2023/08/02 06:46:33;;;;;;;;;0.00;0.00;;;;;23.43;58.41;99056.97;4995832;28;45365;-45
2023/08/02 06:48:58;;;;;;;;;0.00;0.00;;;;;23.42;58.65;99068.53;4978893;28;45637;-45
2023/08/02 06:51:23;;;;;;;;;0.00;0.00;;;;;23.43;58.38;99062.25;4995280;28;57765;-45
2023/08/02 06:53:49;;;;;;;;;0.75;0.00;;;;;23.43;58.77;99036.66;4995468;28;50323;-45
2023/08/02 06:56:16;;;;;;;;;0.00;0.00;;;;;23.44;58.44;99021.63;4995161;28;54877;-49
2023/08/02 06:58:42;;;;;;;;;0.00;0.00;;;;;23.43;58.48;99023.44;4995852;28;45324;-46
2023/08/02 07:01:16;;;;;;;;;0.00;0.00;;;;;23.44;58.67;99040.13;4998358;28;45337;-42
2023/08/02 07:03:42;;;;;;;;;0.00;0.00;;;;;23.43;58.65;99028.72;4999281;28;45285;-46
2023/08/02 07:06:19;;;;;;;;;1.00;0.00;;;;;23.44;58.66;99051.53;4999202;28;45359;-44
2023/08/02 07:08:45;;;;;;;;;0.00;0.00;;;;;23.44;58.50;99038.31;4999328;28;45318;-43
2023/08/02 07:11:11;;;;;;;;;1.50;0.00;;;;;23.44;58.55;99034.84;4997886;28;46383;-41
2023/08/02 07:13:37;;;;;;;;;0.00;0.00;;;;;23.45;59.00;99032.03;4998797;28;45456;-44
2023/08/02 07:16:04;;;;;;;;;0.00;0.00;;;;;23.44;58.43;99030.38;4998962;28;45395;-46
2023/08/02 07:18:30;;;;;;;;;0.00;0.00;;;;;23.44;58.90;99030.38;4999216;28;45373;-44
2023/08/02 07:20:55;;;;;;;;;0.00;0.00;;;;;23.45;58.51;99015.38;4998567;28;45966;-46
2023/08/02 07:23:22;;;;;;;;;0.00;0.00;;;;;23.46;58.48;99020.50;4998714;28;45223;-47
2023/08/02 07:25:47;;;;;;;;;0.00;0.00;;;;;23.45;58.77;99012.72;4998856;28;45880;-45
2023/08/02 07:28:13;;;;;;;;;0.00;0.00;;;;;23.44;58.75;99008.41;4998911;28;45549;-45
2023/08/02 07:30:38;;;;;;;;;0.00;0.00;;;;;23.45;58.46;99010.91;4998401;28;46666;-48
2023/08/02 07:33:03;;;;;;;;;0.00;0.00;;;;;23.45;58.58;99016.19;4998495;28;45348;-45
2023/08/02 07:35:29;;;;;;;;;0.00;0.00;;;;;23.45;58.39;99016.19;4998884;28;45294;-45
2023/08/02 07:37:56;;;;;;;;;0.00;0.00;;;;;23.45;58.84;99010.06;4998644;28;45536;-44
2023/08/02 07:40:21;;;;;;;;;0.00;0.00;;;;;23.46;58.76;99017.84;4998400;28;45348;-47
2023/08/02 07:42:47;;;;;;;;;0.00;0.00;;;;;23.48;58.60;99017.72;4998364;28;45342;-45
2023/08/02 07:45:12;;;;;;;;;0.00;0.00;;;;;23.49;58.88;99015.91;4997870;28;58026;-44
2023/08/02 07:47:38;;;;;;;;;0.00;0.00;;;;;23.48;58.36;99015.06;4998632;28;45325;-45
2023/08/02 07:50:05;;;;;;;;;0.00;0.00;;;;;23.50;58.22;99012.28;4998162;28;46357;-48
2023/08/02 07:52:30;;;;;;;;;0.00;0.00;;;;;23.50;58.96;99014.91;4998609;28;45645;-46
2023/08/02 07:54:56;;;;;;;;;0.00;0.00;;;;;23.50;58.32;99017.56;4998295;28;45237;-49
2023/08/02 07:57:29;;;;;;;;;0.00;0.00;;;;;23.50;59.06;99013.09;4998336;28;45330;-46
2023/08/02 07:59:57;;;;;;;;;0.00;0.00;;;;;23.51;58.47;99013.94;4998028;28;45400;-45
2023/08/02 08:02:22;;;;;;;;;0.00;0.00;;;;;23.50;58.40;99012.28;4980716;28;45377;-43
2023/08/02 08:04:48;;;;;;;;;0.00;0.00;;;;;23.50;58.54;99017.56;4998123;28;45220;-45
2023/08/02 08:07:13;;;;;;;;;0.00;0.00;;;;;23.52;58.74;99005.03;4998190;28;45187;-42
2023/08/02 08:09:38;;;;;;;;;0.00;0.00;;;;;23.50;58.32;99004.34;4997735;28;45292;-44
2023/08/02 08:12:05;;;;;;;;;0.00;0.00;;;;;23.52;58.75;99011.13;4996957;28;45317;-48
2023/08/02 08:14:32;;;;;;;;;0.00;0.00;;;;;23.52;58.50;99013.78;4980708;28;45307;-45
2023/08/02 08:16:58;;;;;;;;;0.00;0.00;;;;;23.52;58.27;99005.84;4980449;28;45332;-43
2023/08/02 08:19:23;;;;;;;;;0.00;0.00;;;;;23.52;58.26;99027.00;4997466;28;45281;-46
2023/08/02 08:21:48;;;;;;;;;0.00;0.00;;;;;23.54;58.34;99018.91;4980019;28;45417;-43
2023/08/02 08:24:14;;;;;;;;;0.00;0.00;;;;;23.53;58.19;99002.22;4997558;28;50096;-44
2023/08/02 08:26:39;;;;;;;;;0.00;0.00;;;;;23.55;58.63;99004.72;4997676;28;45616;-45
2023/08/02 08:29:04;;;;;;;;;0.00;0.00;;;;;23.54;58.21;99003.03;4997812;28;45396;-46
2023/08/02 08:31:30;;;;;;;;;0.00;0.00;;;;;23.54;58.71;99005.69;4997256;28;55109;-48
2023/08/02 08:33:55;;;;;;;;;0.00;0.00;;;;;23.57;58.60;99015.97;4997714;28;45329;-45
